Time;durP1;ratioP1;P1;durP2;ratioP2;P2;SDS_P1;SDS_P2;PMS_P1;PMS_P2;Temp;Humidity;BMP_temperature;BMP_pressure;BME280_temperature;BME280_humidity;BME280_pressure;Samples;Min_cycle;Max_cycle;Signal;HPM_P1;HPM_P2
2022/09/08 00:01:17;;;;;;;2.90;1.97;;;7.30;99.90;;;;;;4922510;29;20399;-85
2022/09/08 00:03:45;;;;;;;2.13;1.83;;;7.30;99.90;;;;;;4931533;29;20978;-85
2022/09/08 00:06:16;;;;;;;3.40;1.88;;;7.30;99.90;;;;;;4934930;29;20398;-86
2022/09/08 00:08:46;;;;;;;2.03;1.60;;;7.30;99.90;;;;;;4934839;29;20417;-85
2022/09/08 00:11:28;;;;;;;2.72;1.92;;;7.40;99.90;;;;;;4934735;29;20402;-84
2022/09/08 00:13:58;;;;;;;2.28;2.03;;;7.20;99.90;;;;;;4935960;29;20473;-86
2022/09/08 00:16:25;;;;;;;2.15;1.90;;;7.20;99.90;;;;;;4934633;29;20406;-87
2022/09/08 00:18:53;;;;;;;2.28;1.88;;;7.10;99.90;;;;;;4936062;29;20884;-86
2022/09/08 00:21:23;;;;;;;5.10;2.25;;;7.10;99.90;;;;;;4934680;29;20773;-86
2022/09/08 00:23:51;;;;;;;3.77;1.87;;;7.00;99.90;;;;;;4934532;29;20402;-84
2022/09/08 00:26:20;;;;;;;2.95;1.70;;;7.00;99.90;;;;;;4935550;29;20410;-87
2022/09/08 00:28:49;;;;;;;2.17;1.90;;;7.10;99.90;;;;;;4931216;29;20400;-86
2022/09/08 00:31:16;;;;;;;2.55;1.88;;;7.00;99.90;;;;;;4934850;29;20402;-86
2022/09/08 00:33:45;;;;;;;2.17;1.70;;;7.00;99.90;;;;;;4935546;29;20398;-86
2022/09/08 00:36:15;;;;;;;5.38;1.98;;;7.00;99.90;;;;;;4935573;29;20489;-85
2022/09/08 00:38:50;;;;;;;2.42;1.70;;;7.00;99.90;;;;;;4935011;29;20401;-86
2022/09/08 00:41:19;;;;;;;2.70;1.60;;;7.00;99.90;;;;;;4935659;29;20394;-85
2022/09/08 00:43:52;;;;;;;2.57;1.80;;;7.10;99.90;;;;;;4928580;29;20399;-87
2022/09/08 00:46:33;;;;;;;1.77;1.67;;;7.00;99.90;;;;;;4930772;29;20406;-85
2022/09/08 00:49:09;;;;;;;3.38;1.92;;;7.10;99.90;;;;;;4914903;29;20426;-86
2022/09/08 00:51:42;;;;;;;2.13;1.50;;;7.10;99.90;;;;;;4925473;29;20417;-86
2022/09/08 00:54:11;;;;;;;2.17;1.73;;;7.10;99.90;;;;;;4935719;29;20394;-86
2022/09/08 00:56:41;;;;;;;2.45;2.00;;;7.00;99.90;;;;;;4935169;29;20915;-86
2022/09/08 00:59:11;;;;;;;3.17;1.90;;;6.90;99.90;;;;;;4935189;29;20401;-86
2022/09/08 01:01:39;;;;;;;2.35;1.92;;;6.90;99.90;;;;;;4935012;29;20413;-86
2022/09/08 01:04:08;;;;;;;4.50;1.83;;;7.00;99.90;;;;;;4935380;29;20409;-85
2022/09/08 01:12:45;;;;;;;2.67;1.70;;;7.00;99.90;;;;;;4934942;29;20394;-85
2022/09/08 01:15:18;;;;;;;2.23;1.73;;;6.80;99.90;;;;;;4934885;29;20405;-85
2022/09/08 01:17:48;;;;;;;3.20;1.95;;;6.80;99.90;;;;;;4934952;29;20436;-86
2022/09/08 01:20:20;;;;;;;2.47;1.92;;;6.90;99.90;;;;;;4933595;29;20406;-85
2022/09/08 01:23:06;;;;;;;1.90;1.60;;;6.80;99.90;;;;;;4934792;29;20781;-85
2022/09/08 01:25:53;;;;;;;3.58;2.00;;;6.70;99.90;;;;;;4933372;29;20437;-85
2022/09/08 01:28:50;;;;;;;2.80;2.00;;;6.50;99.90;;;;;;4933588;29;20520;-86
2022/09/08 01:31:18;;;;;;;3.03;2.03;;;6.40;99.90;;;;;;4934337;29;20394;-86
2022/09/08 01:33:46;;;;;;;3.50;1.80;;;6.50;99.90;;;;;;4934556;29;20401;-85
2022/09/08 01:36:16;;;;;;;2.33;1.83;;;6.50;99.90;;;;;;4915063;29;20431;-86
2022/09/08 01:38:44;;;;;;;4.75;1.95;;;6.40;99.90;;;;;;4914660;29;20390;-85
2022/09/08 01:41:13;;;;;;;3.65;1.92;;;6.50;99.90;;;;;;4914293;29;20427;-85
2022/09/08 01:43:41;;;;;;;2.50;2.05;;;6.50;99.90;;;;;;4915435;29;20403;-85
2022/09/08 01:46:09;;;;;;;2.53;1.70;;;6.50;99.90;;;;;;4915416;29;20466;-85
2022/09/08 01:48:40;;;;;;;3.47;2.30;;;6.50;99.90;;;;;;4915448;29;20404;-86
2022/09/08 01:51:08;;;;;;;2.57;2.10;;;6.30;99.90;;;;;;4914243;29;20419;-84
2022/09/08 01:53:36;;;;;;;2.17;1.97;;;6.20;99.90;;;;;;4914320;29;20898;-85
2022/09/08 01:56:05;;;;;;;3.40;2.10;;;6.10;99.90;;;;;;4914038;29;20918;-85
2022/09/08 01:58:33;;;;;;;2.13;1.80;;;6.00;99.90;;;;;;4914046;29;20402;-84
2022/09/08 02:01:01;;;;;;;3.28;2.08;;;6.10;99.90;;;;;;4915483;29;20891;-84
2022/09/08 02:03:29;;;;;;;2.92;2.00;;;6.00;99.90;;;;;;4918006;29;20403;-85
2022/09/08 02:06:02;;;;;;;2.80;2.03;;;5.90;99.90;;;;;;4918038;29;20654;-84
2022/09/08 02:08:30;;;;;;;4.03;2.43;;;6.00;99.90;;;;;;4918091;29;20434;-85
2022/09/08 02:10:59;;;;;;;2.22;1.90;;;6.00;99.90;;;;;;4917951;29;20415;-85
2022/09/08 02:13:28;;;;;;;2.88;1.90;;;6.00;99.90;;;;;;4917805;29;20467;-84
2022/09/08 02:16:06;;;;;;;3.10;2.10;;;6.00;99.90;;;;;;4930002;29;20900;-84
2022/09/08 02:18:35;;;;;;;2.30;1.92;;;6.00;99.90;;;;;;4938091;29;20396;-84
2022/09/08 02:21:11;;;;;;;2.60;1.90;;;6.00;99.90;;;;;;4938062;29;20397;-83
2022/09/08 02:23:42;;;;;;;3.00;2.05;;;5.90;99.90;;;;;;4952774;29;20402;-82
2022/09/08 02:26:37;;;;;;;2.67;2.10;;;5.90;99.90;;;;;;4951965;29;21083;-84
2022/09/08 02:29:08;;;;;;;4.23;2.40;;;5.80;99.90;;;;;;4936242;29;20413;-83
2022/09/08 02:31:36;;;;;;;3.92;2.35;;;5.80;99.90;;;;;;4937798;29;20401;-85
2022/09/08 02:34:05;;;;;;;2.97;1.83;;;5.90;99.90;;;;;;4934659;29;20766;-84
2022/09/08 02:36:32;;;;;;;4.25;2.25;;;5.90;99.90;;;;;;4937400;29;20393;-84
2022/09/08 02:39:00;;;;;;;2.72;2.22;;;5.90;99.90;;;;;;4937502;29;20397;-84
2022/09/08 02:41:28;;;;;;;3.53;2.22;;;6.00;99.90;;;;;;4936470;29;20402;-84
2022/09/08 02:43:56;;;;;;;2.63;2.05;;;6.00;99.90;;;;;;4932494;29;20406;-85
2022/09/08 02:46:25;;;;;;;3.28;1.98;;;6.00;99.90;;;;;;4933150;29;20901;-84
2022/09/08 02:48:53;;;;;;;2.37;1.87;;;6.00;99.90;;;;;;4933158;29;20482;-84
2022/09/08 02:51:21;;;;;;;3.50;2.00;;;6.00;99.90;;;;;;4932936;29;20442;-84
2022/09/08 02:53:48;;;;;;;2.08;1.75;;;5.90;99.90;;;;;;4918460;29;20490;-85
2022/09/08 02:56:16;;;;;;;2.47;1.70;;;6.00;99.90;;;;;;4932933;29;20423;-84
2022/09/08 02:58:44;;;;;;;3.38;2.40;;;6.00;99.90;;;;;;4934182;29;20418;-83
2022/09/08 03:01:11;;;;;;;1.90;1.70;;;6.00;99.90;;;;;;4919799;29;20404;-85
2022/09/08 03:03:40;;;;;;;2.92;1.60;;;6.00;99.90;;;;;;4937193;29;20402;-84
2022/09/08 03:06:08;;;;;;;2.30;1.67;;;6.10;99.90;;;;;;4937388;29;20449;-83
2022/09/08 03:08:36;;;;;;;3.67;1.77;;;6.10;99.90;;;;;;4937263;29;20461;-84
2022/09/08 03:11:04;;;;;;;3.03;1.60;;;6.10;99.90;;;;;;4937156;29;20410;-84
2022/09/08 03:13:32;;;;;;;2.50;1.70;;;6.00;99.90;;;;;;4936921;29;20805;-85
2022/09/08 03:16:01;;;;;;;2.20;1.30;;;6.10;99.90;;;;;;4932587;29;20887;-83
2022/09/08 03:18:29;;;;;;;2.80;1.80;;;6.10;99.90;;;;;;4918093;29;20395;-84
2022/09/08 03:21:04;;;;;;;2.15;1.60;;;6.20;99.90;;;;;;4932636;29;20418;-83
2022/09/08 03:23:33;;;;;;;1.73;1.50;;;6.20;99.90;;;;;;4932517;29;20403;-83
2022/09/08 03:26:04;;;;;;;2.55;1.40;;;6.20;99.90;;;;;;4935211;29;20469;-84
2022/09/08 03:28:32;;;;;;;1.90;1.38;;;6.30;99.90;;;;;;4930756;29;20473;-85
2022/09/08 03:31:00;;;;;;;1.90;1.55;;;6.20;99.90;;;;;;4948752;29;20461;-84
2022/09/08 03:33:28;;;;;;;3.03;1.98;;;6.30;99.90;;;;;;4935322;29;20905;-84
2022/09/08 03:36:00;;;;;;;2.58;1.85;;;6.10;99.90;;;;;;4936677;29;20426;-85
2022/09/08 03:38:28;;;;;;;3.38;1.88;;;6.10;99.90;;;;;;4935452;29;20459;-85
2022/09/08 03:40:55;;;;;;;3.10;1.60;;;6.00;99.90;;;;;;4935607;29;20873;-85
2022/09/08 03:43:23;;;;;;;2.10;1.50;;;6.00;99.90;;;;;;4935326;29;20398;-83
2022/09/08 03:45:51;;;;;;;2.78;1.73;;;5.90;99.90;;;;;;4936579;29;20400;-84
2022/09/08 03:48:19;;;;;;;3.33;1.70;;;5.90;99.90;;;;;;4935792;29;20417;-83
2022/09/08 03:50:46;;;;;;;2.70;1.65;;;5.90;99.90;;;;;;4938590;29;20417;-84
2022/09/08 03:53:14;;;;;;;3.20;1.75;;;5.90;99.90;;;;;;4935240;29;20402;-84
2022/09/08 03:55:43;;;;;;;2.28;1.55;;;5.90;99.90;;;;;;4922263;29;20442;-84
2022/09/08 03:58:11;;;;;;;2.50;1.98;;;5.80;99.90;;;;;;4917276;29;20766;-83
2022/09/08 04:00:42;;;;;;;2.30;1.70;;;5.80;99.90;;;;;;4933481;29;20434;-84
2022/09/08 04:03:09;;;;;;;3.10;1.80;;;5.70;99.90;;;;;;4937059;29;20416;-83
2022/09/08 04:05:39;;;;;;;2.17;1.52;;;5.70;99.90;;;;;;4916021;29;20411;-83
2022/09/08 04:08:07;;;;;;;2.67;1.77;;;5.60;99.90;;;;;;4917393;29;20408;-84
2022/09/08 04:10:35;;;;;;;2.72;1.70;;;5.60;99.90;;;;;;4943342;29;20518;-85
2022/09/08 04:13:02;;;;;;;2.25;1.77;;;5.70;99.90;;;;;;4934946;29;20402;-85
2022/09/08 04:15:30;;;;;;;3.47;1.80;;;5.60;99.90;;;;;;4936146;29;20390;-85
2022/09/08 04:17:58;;;;;;;4.40;1.67;;;5.70;99.90;;;;;;4934802;29;20810;-84
2022/09/08 04:20:25;;;;;;;3.80;1.80;;;5.60;99.90;;;;;;4934545;29;20908;-84
2022/09/08 04:22:53;;;;;;;2.30;1.60;;;5.50;99.90;;;;;;4934011;29;20825;-84
2022/09/08 04:25:22;;;;;;;3.55;1.80;;;5.60;99.90;;;;;;4928690;29;20916;-84
2022/09/08 04:27:50;;;;;;;3.10;1.80;;;5.70;99.90;;;;;;4934520;29;20493;-84
2022/09/08 04:30:18;;;;;;;2.85;2.00;;;5.50;99.90;;;;;;4928278;29;20409;-84
2022/09/08 04:32:46;;;;;;;3.35;1.80;;;5.60;99.90;;;;;;4934553;29;20409;-83
2022/09/08 04:35:14;;;;;;;2.67;1.70;;;5.50;99.90;;;;;;4933919;29;20899;-84
2022/09/08 04:37:42;;;;;;;2.50;1.90;;;5.40;99.90;;;;;;4933713;29;20398;-85
2022/09/08 04:40:09;;;;;;;4.03;1.90;;;5.50;99.90;;;;;;4934244;29;20405;-84
2022/09/08 04:42:37;;;;;;;4.00;1.80;;;5.40;99.90;;;;;;4935269;29;20437;-85
2022/09/08 04:45:05;;;;;;;2.85;1.63;;;5.50;99.90;;;;;;4949872;29;20422;-85
2022/09/08 04:47:34;;;;;;;2.35;1.50;;;5.60;99.90;;;;;;4949690;29;20402;-84
2022/09/08 04:50:01;;;;;;;3.15;1.65;;;5.60;99.90;;;;;;4950017;29;20410;-84
2022/09/08 04:52:29;;;;;;;3.03;2.15;;;5.70;99.90;;;;;;4950059;29;20401;-85
2022/09/08 04:54:59;;;;;;;3.70;1.40;;;5.70;99.90;;;;;;4918395;29;20406;-85
2022/09/08 04:57:28;;;;;;;2.28;1.40;;;5.80;99.90;;;;;;4934119;29;20416;-86
2022/09/08 04:59:55;;;;;;;3.17;1.80;;;5.80;99.90;;;;;;4934296;29;20848;-86
2022/09/08 05:02:23;;;;;;;3.60;1.67;;;5.80;99.90;;;;;;4932003;29;20405;-84
2022/09/08 05:04:51;;;;;;;4.95;2.70;;;5.80;99.90;;;;;;4949778;29;20930;-85
2022/09/08 05:07:23;;;;;;;3.63;1.87;;;5.80;99.90;;;;;;4948792;28;20461;-85
2022/09/08 05:09:50;;;;;;;1.85;1.50;;;5.80;99.90;;;;;;4932838;29;20415;-85
2022/09/08 05:12:18;;;;;;;5.00;1.90;;;5.70;99.90;;;;;;4919867;29;20403;-85
2022/09/08 05:14:46;;;;;;;4.40;2.63;;;5.80;99.90;;;;;;4930682;29;20916;-86
2022/09/08 05:17:13;;;;;;;2.63;1.53;;;5.90;99.90;;;;;;4933395;29;20412;-86
2022/09/08 05:19:47;;;;;;;2.10;1.50;;;5.90;99.90;;;;;;4930458;29;21083;-86
2022/09/08 05:22:14;;;;;;;3.08;1.58;;;5.90;99.90;;;;;;4929943;29;20816;-85
2022/09/08 05:24:42;;;;;;;2.97;1.88;;;6.00;99.90;;;;;;4932299;29;20420;-84
2022/09/08 05:27:10;;;;;;;2.17;1.40;;;6.00;99.90;;;;;;4928865;29;20461;-86
2022/09/08 05:29:38;;;;;;;2.80;1.48;;;6.00;99.90;;;;;;4933600;29;20410;-86
2022/09/08 05:32:06;;;;;;;1.85;1.13;;;6.10;99.90;;;;;;4925618;29;20494;-85
2022/09/08 05:34:34;;;;;;;3.35;1.40;;;6.10;99.90;;;;;;4931771;29;20473;-86
2022/09/08 05:37:01;;;;;;;2.50;1.30;;;6.10;99.90;;;;;;4921598;29;20392;-86
2022/09/08 05:39:29;;;;;;;6.30;1.88;;;6.10;99.90;;;;;;4934447;29;20965;-84
2022/09/08 05:41:57;;;;;;;2.33;1.20;;;6.10;99.90;;;;;;4933468;29;20398;-85
2022/09/08 05:44:25;;;;;;;3.47;1.23;;;6.20;99.90;;;;;;4933386;29;20488;-86
2022/09/08 05:46:52;;;;;;;2.22;1.40;;;6.20;99.90;;;;;;4934589;29;20398;-85
2022/09/08 05:49:20;;;;;;;3.13;1.10;;;6.30;99.90;;;;;;4933577;29;20402;-85
2022/09/08 05:51:52;;;;;;;2.83;1.30;;;6.30;99.90;;;;;;4933322;29;20496;-85
2022/09/08 05:54:21;;;;;;;1.87;1.03;;;6.40;99.90;;;;;;4933398;29;20402;-84
2022/09/08 05:56:49;;;;;;;1.73;1.02;;;6.50;99.90;;;;;;4933207;29;20406;-85
2022/09/08 05:59:16;;;;;;;1.55;0.95;;;6.50;99.90;;;;;;4933010;29;20437;-84
2022/09/08 06:01:44;;;;;;;1.55;1.10;;;6.50;99.90;;;;;;4933046;29;20414;-85
2022/09/08 06:04:14;;;;;;;2.20;1.10;;;6.60;99.90;;;;;;4933401;29;20963;-86
2022/09/08 06:06:42;;;;;;;4.22;1.30;;;6.70;99.90;;;;;;4933331;29;20408;-85
2022/09/08 06:09:12;;;;;;;1.30;0.90;;;6.70;99.90;;;;;;4933435;29;20401;-86
2022/09/08 06:11:41;;;;;;;3.53;1.00;;;6.70;99.90;;;;;;4932837;29;20449;-84
2022/09/08 06:14:10;;;;;;;3.95;1.05;;;6.80;99.90;;;;;;4933003;29;20434;-86
2022/09/08 06:16:37;;;;;;;1.60;1.00;;;6.80;99.90;;;;;;4932694;29;20402;-86
2022/09/08 06:19:06;;;;;;;0.98;0.77;;;6.90;99.90;;;;;;4932655;29;20908;-85
2022/09/08 06:21:34;;;;;;;1.25;0.77;;;7.00;99.90;;;;;;4934414;29;20465;-84
2022/09/08 06:24:04;;;;;;;1.70;0.90;;;7.00;99.90;;;;;;4933020;29;20426;-85
2022/09/08 06:26:47;;;;;;;1.77;0.80;;;7.10;99.90;;;;;;4932318;29;20498;-86
2022/09/08 06:29:24;;;;;;;1.58;0.90;;;7.10;99.90;;;;;;4922407;29;20391;-86
2022/09/08 06:32:19;;;;;;;1.60;0.80;;;7.30;99.90;;;;;;4929490;29;20493;-85
2022/09/08 06:34:52;;;;;;;1.33;0.70;;;7.40;99.90;;;;;;4927983;29;20393;-85
2022/09/08 06:37:30;;;;;;;1.07;0.60;;;7.40;99.90;;;;;;4942709;29;20441;-86
2022/09/08 06:40:21;;;;;;;1.35;0.70;;;7.50;99.90;;;;;;4948087;29;20964;-85
2022/09/08 06:42:53;;;;;;;1.10;0.65;;;7.40;99.90;;;;;;4948737;28;20497;-84
2022/09/08 06:45:27;;;;;;;1.50;0.60;;;7.40;99.90;;;;;;4934193;29;20753;-85
2022/09/08 06:48:15;;;;;;;0.85;0.50;;;7.50;99.90;;;;;;4950216;28;20436;-85
2022/09/08 06:51:12;;;;;;;1.90;0.50;;;7.50;99.90;;;;;;4952017;29;20416;-86
2022/09/08 06:54:01;;;;;;;1.00;0.50;;;7.60;99.90;;;;;;4954090;28;20469;-85
2022/09/08 06:56:37;;;;;;;2.03;0.50;;;7.70;99.90;;;;;;4952056;28;20839;-85
2022/09/08 06:59:34;;;;;;;1.35;0.50;;;7.80;99.90;;;;;;4929877;29;20406;-85
2022/09/08 07:02:33;;;;;;;1.13;0.50;;;7.90;99.90;;;;;;4946946;29;20408;-85
2022/09/08 07:05:13;;;;;;;0.93;0.47;;;8.00;99.90;;;;;;4970658;28;20408;-86
2022/09/08 07:08:04;;;;;;;0.90;0.53;;;8.10;99.90;;;;;;4956362;28;20484;-85
2022/09/08 07:10:49;;;;;;;0.60;0.40;;;8.30;99.90;;;;;;4936586;29;20421;-84
2022/09/08 07:13:36;;;;;;;0.70;0.47;;;8.20;99.90;;;;;;4932496;29;20795;-85
2022/09/08 07:16:48;;;;;;;1.10;0.50;;;8.20;99.90;;;;;;4918229;29;20488;-85
2022/09/08 07:19:28;;;;;;;1.80;0.40;;;8.20;99.90;;;;;;4914504;29;20516;-86
2022/09/08 07:22:34;;;;;;;0.30;0.30;;;8.30;99.90;;;;;;4928577;29;20412;-85
2022/09/08 07:25:24;;;;;;;0.60;0.30;;;8.30;99.90;;;;;;4950898;29;20406;-87
2022/09/08 07:28:06;;;;;;;1.60;0.50;;;8.30;99.90;;;;;;4952949;29;20424;-85
2022/09/08 07:30:36;;;;;;;0.68;0.30;;;8.20;99.90;;;;;;4954458;28;20428;-84
2022/09/08 07:33:15;;;;;;;0.80;0.40;;;8.30;99.90;;;;;;4954962;29;20744;-86
2022/09/08 07:35:54;;;;;;;0.40;0.30;;;8.40;99.90;;;;;;4954900;29;20402;-86
2022/09/08 07:38:42;;;;;;;0.60;0.40;;;8.30;99.90;;;;;;4954867;29;20403;-86
2022/09/08 07:41:25;;;;;;;0.52;0.50;;;8.30;99.90;;;;;;4970597;28;20419;-85
2022/09/08 07:43:59;;;;;;;2.40;0.40;;;8.40;99.90;;;;;;4954481;29;20396;-86
2022/09/08 07:46:41;;;;;;;1.88;0.43;;;8.50;99.90;;;;;;4937789;29;20473;-86
2022/09/08 07:49:18;;;;;;;1.92;0.40;;;8.60;99.90;;;;;;4935349;29;20476;-85
2022/09/08 07:52:01;;;;;;;0.75;0.30;;;8.70;99.90;;;;;;4936676;29;20412;-86
2022/09/08 07:54:59;;;;;;;0.70;0.40;;;8.70;99.90;;;;;;4935259;29;20418;-86
2022/09/08 07:57:53;;;;;;;0.65;0.30;;;8.80;99.90;;;;;;4935321;29;20405;-86
2022/09/08 08:00:31;;;;;;;4.90;0.50;;;8.80;99.90;;;;;;4927939;28;20392;-86
2022/09/08 08:03:21;;;;;;;1.15;0.43;;;8.90;99.90;;;;;;4954514;28;20415;-87
2022/09/08 08:05:59;;;;;;;1.90;0.38;;;8.80;99.90;;;;;;4954451;29;20400;-86
2022/09/08 08:08:52;;;;;;;3.90;0.40;;;8.90;99.90;;;;;;4954756;29;20411;-87
2022/09/08 08:11:42;;;;;;;2.00;0.40;;;9.00;99.90;;;;;;4954152;29;20408;-87
2022/09/08 08:14:40;;;;;;;1.65;0.60;;;8.90;99.90;;;;;;4954076;29;20480;-86
2022/09/08 08:17:32;;;;;;;1.10;0.40;;;9.10;99.90;;;;;;4954053;29;20403;-87
2022/09/08 08:20:09;;;;;;;0.40;0.30;;;9.10;99.90;;;;;;4954161;29;20424;-86
2022/09/08 08:23:00;;;;;;;0.60;0.30;;;9.10;99.90;;;;;;4954122;29;20404;-86
2022/09/08 08:25:39;;;;;;;0.83;0.40;;;9.10;99.90;;;;;;4953701;28;20927;-86
2022/09/08 08:28:18;;;;;;;0.77;0.40;;;9.20;99.90;;;;;;4953926;29;20406;-86
2022/09/08 08:30:55;;;;;;;1.45;0.32;;;9.20;99.90;;;;;;4953953;29;20392;-87
2022/09/08 08:33:28;;;;;;;2.00;0.50;;;9.30;99.90;;;;;;4954058;29;20416;-86
2022/09/08 08:36:05;;;;;;;0.90;0.50;;;9.30;99.90;;;;;;4968985;28;20397;-87
2022/09/08 08:38:55;;;;;;;1.33;0.50;;;9.30;99.90;;;;;;4954648;28;20752;-87
2022/09/08 08:41:45;;;;;;;0.93;0.47;;;9.30;99.90;;;;;;4953537;29;20455;-87
2022/09/08 08:44:48;;;;;;;2.92;0.52;;;9.40;99.90;;;;;;4953833;29;20388;-86
2022/09/08 08:48:00;;;;;;;1.10;0.50;;;9.50;99.90;;;;;;4953619;29;20931;-85
2022/09/08 08:51:00;;;;;;;1.02;0.50;;;9.60;99.90;;;;;;4953628;28;20763;-86
2022/09/08 08:53:48;;;;;;;1.70;0.43;;;9.70;99.90;;;;;;4953338;29;20737;-87
2022/09/08 08:56:39;;;;;;;0.90;0.50;;;9.70;99.90;;;;;;4954589;29;20396;-86
2022/09/08 08:59:19;;;;;;;1.90;0.40;;;10.00;99.90;;;;;;4954513;28;20455;-86
2022/09/08 09:01:59;;;;;;;3.35;0.60;;;10.00;99.90;;;;;;4939893;28;20413;-86
2022/09/08 09:04:39;;;;;;;2.55;0.60;;;10.20;99.90;;;;;;4934102;29;20413;-87
2022/09/08 09:07:29;;;;;;;3.00;0.70;;;10.40;99.90;;;;;;4934307;29;20404;-86
2022/09/08 09:10:14;;;;;;;2.17;0.60;;;10.40;99.90;;;;;;4933941;29;20595;-87
2022/09/08 09:13:19;;;;;;;2.65;0.50;;;10.40;99.90;;;;;;4933976;29;20414;-87
2022/09/08 09:16:08;;;;;;;2.22;0.50;;;10.40;99.90;;;;;;4934302;29;20409;-87
2022/09/08 09:18:51;;;;;;;1.67;0.60;;;10.40;99.90;;;;;;4935167;29;20925;-87
2022/09/08 09:21:49;;;;;;;1.10;0.50;;;10.50;99.90;;;;;;4933787;29;20907;-86
2022/09/08 09:24:45;;;;;;;3.25;0.40;;;10.50;99.90;;;;;;4933829;29;20427;-86
2022/09/08 09:27:41;;;;;;;2.27;0.40;;;10.40;99.90;;;;;;4933432;29;20406;-87
2022/09/08 09:30:18;;;;;;;1.02;0.40;;;10.30;99.90;;;;;;4935065;29;20965;-85
2022/09/08 09:33:32;;;;;;;0.85;0.30;;;10.20;99.90;;;;;;4935252;29;20513;-86
2022/09/08 09:36:11;;;;;;;1.50;0.40;;;10.10;99.90;;;;;;4919933;29;20477;-86
2022/09/08 09:39:06;;;;;;;1.65;0.60;;;10.30;99.90;;;;;;4933781;29;20489;-86
2022/09/08 09:42:07;;;;;;;0.73;0.40;;;10.50;99.90;;;;;;4933589;29;20410;-85
2022/09/08 09:44:40;;;;;;;1.15;0.40;;;10.60;99.90;;;;;;4933756;29;20742;-87
2022/09/08 09:47:31;;;;;;;1.10;0.50;;;10.70;99.90;;;;;;4933821;29;20896;-86
2022/09/08 09:50:23;;;;;;;1.20;0.40;;;10.90;99.90;;;;;;4934808;29;20471;-87
2022/09/08 09:52:57;;;;;;;1.48;0.50;;;11.10;99.90;;;;;;4933562;29;20452;-86
2022/09/08 09:56:15;;;;;;;2.03;0.40;;;11.20;99.90;;;;;;4933424;29;20398;-86
2022/09/08 09:58:46;;;;;;;1.40;0.38;;;11.40;99.90;;;;;;4933703;29;20809;-86
2022/09/08 10:01:51;;;;;;;0.82;0.32;;;11.40;99.90;;;;;;4943667;29;20418;-86
2022/09/08 10:04:45;;;;;;;0.75;0.47;;;11.10;99.90;;;;;;4952480;28;20975;-87
2022/09/08 10:07:50;;;;;;;1.30;0.40;;;10.90;99.90;;;;;;4952645;29;20471;-87
2022/09/08 10:11:10;;;;;;;0.98;0.32;;;10.90;99.90;;;;;;4952530;28;20406;-87
2022/09/08 10:13:41;;;;;;;0.90;0.40;;;10.80;99.90;;;;;;4968416;28;20404;-87
2022/09/08 10:16:38;;;;;;;0.82;0.43;;;10.70;99.90;;;;;;4952728;29;20408;-86
2022/09/08 10:19:33;;;;;;;3.60;0.70;;;10.80;99.90;;;;;;4953553;28;20925;-88
2022/09/08 10:22:29;;;;;;;1.95;0.40;;;11.00;99.90;;;;;;4952356;28;20737;-86
2022/09/08 10:25:31;;;;;;;2.63;0.50;;;11.20;99.90;;;;;;4957485;28;20740;-85
2022/09/08 10:28:20;;;;;;;0.60;0.40;;;11.50;99.90;;;;;;4956167;29;20426;-86
2022/09/08 10:31:12;;;;;;;1.23;0.30;;;11.60;99.90;;;;;;4956080;29;20407;-86
2022/09/08 10:34:01;;;;;;;1.90;0.40;;;11.40;99.90;;;;;;4943405;29;20398;-85
2022/09/08 10:36:52;;;;;;;1.00;0.40;;;11.20;99.90;;;;;;4936769;29;20410;-85
2022/09/08 10:39:43;;;;;;;1.60;0.40;;;11.10;99.90;;;;;;4936457;29;20822;-85
2022/09/08 10:42:32;;;;;;;1.17;0.50;;;11.00;99.90;;;;;;4936405;29;20831;-85
2022/09/08 10:45:18;;;;;;;1.30;0.40;;;11.00;99.90;;;;;;4926986;29;20408;-85
2022/09/08 10:48:04;;;;;;;2.65;0.43;;;11.00;99.90;;;;;;4936248;29;20757;-85
2022/09/08 10:50:35;;;;;;;2.05;0.40;;;11.10;99.90;;;;;;4936235;29;20402;-87
2022/09/08 10:53:14;;;;;;;1.90;0.40;;;11.50;99.90;;;;;;4936157;29;20410;-85
2022/09/08 10:55:53;;;;;;;2.80;0.40;;;11.80;99.90;;;;;;4936013;29;20441;-86
2022/09/08 10:58:40;;;;;;;1.50;0.40;;;11.90;99.90;;;;;;4937335;29;20401;-86
2022/09/08 11:01:45;;;;;;;1.05;0.38;;;11.60;99.90;;;;;;4937155;29;20436;-86
2022/09/08 11:04:19;;;;;;;0.67;0.50;;;11.40;99.90;;;;;;4927663;29;20416;-87
2022/09/08 11:07:06;;;;;;;1.20;0.45;;;11.30;99.90;;;;;;4930652;29;20394;-87
2022/09/08 11:09:54;;;;;;;1.80;0.50;;;11.20;99.90;;;;;;4932790;29;20771;-86
2022/09/08 11:13:02;;;;;;;1.08;0.60;;;11.20;99.90;;;;;;4922259;29;20762;-86
2022/09/08 11:15:58;;;;;;;1.08;0.40;;;11.20;99.90;;;;;;4951865;28;20485;-86
2022/09/08 11:18:38;;;;;;;0.50;0.40;;;11.20;99.90;;;;;;4942816;28;20432;-85
2022/09/08 11:21:28;;;;;;;0.50;0.30;;;11.10;99.90;;;;;;4933263;29;20394;-85
2022/09/08 11:24:08;;;;;;;1.43;0.53;;;11.20;99.90;;;;;;4929259;29;20422;-84
2022/09/08 11:27:18;;;;;;;1.58;0.30;;;11.50;99.90;;;;;;4918701;29;20429;-86
2022/09/08 11:30:13;;;;;;;1.10;0.40;;;11.60;99.90;;;;;;4927936;29;20808;-85
2022/09/08 11:32:50;;;;;;;0.70;0.40;;;11.80;99.90;;;;;;4916482;29;20427;-87
2022/09/08 11:35:48;;;;;;;0.25;0.20;;;11.60;99.90;;;;;;4917987;29;20399;-87
2022/09/08 11:38:39;;;;;;;0.30;0.30;;;11.60;99.90;;;;;;4925519;29;20409;-87
2022/09/08 11:41:38;;;;;;;0.47;0.35;;;11.50;99.90;;;;;;4935755;29;20417;-87
2022/09/08 11:44:31;;;;;;;1.60;0.40;;;11.50;99.90;;;;;;4935838;29;20425;-86
2022/09/08 11:47:23;;;;;;;0.45;0.30;;;11.50;99.90;;;;;;4935758;29;20769;-86
2022/09/08 11:50:10;;;;;;;1.90;0.40;;;11.50;99.90;;;;;;4935474;29;20401;-86
2022/09/08 11:53:22;;;;;;;0.50;0.30;;;11.70;99.90;;;;;;4933423;29;21288;-86
2022/09/08 11:56:24;;;;;;;1.20;0.40;;;12.10;99.90;;;;;;4928520;29;20402;-87
2022/09/08 11:59:21;;;;;;;1.23;0.50;;;12.50;99.90;;;;;;4936670;29;20394;-86
2022/09/08 12:02:41;;;;;;;1.00;0.30;;;12.60;99.90;;;;;;4920639;29;20412;-87
2022/09/08 12:05:25;;;;;;;0.43;0.20;;;12.80;99.90;;;;;;4918601;29;20489;-87
2022/09/08 12:08:29;;;;;;;1.60;0.38;;;12.70;99.90;;;;;;4936256;29;20407;-86
2022/09/08 12:11:05;;;;;;;1.30;0.30;;;12.40;99.90;;;;;;4934705;29;20493;-87
2022/09/08 12:13:45;;;;;;;0.57;0.30;;;12.30;99.90;;;;;;4933297;29;20420;-87
2022/09/08 12:16:32;;;;;;;0.80;0.30;;;12.20;99.90;;;;;;4920381;29;20861;-87
2022/09/08 12:19:21;;;;;;;0.55;0.40;;;12.20;99.90;;;;;;4930570;29;20390;-86
2022/09/08 12:22:08;;;;;;;7.65;0.57;;;12.30;99.90;;;;;;4950915;28;20402;-86
2022/09/08 12:24:58;;;;;;;0.80;0.30;;;12.70;99.90;;;;;;4949523;29;20416;-85
2022/09/08 12:27:55;;;;;;;0.45;0.30;;;12.90;99.90;;;;;;4929736;29;20418;-87
2022/09/08 12:30:40;;;;;;;0.45;0.30;;;13.10;99.90;;;;;;4933902;29;20998;-87
2022/09/08 12:33:22;;;;;;;0.30;0.30;;;13.50;99.90;;;;;;4960945;28;20763;-86
2022/09/08 12:36:05;;;;;;;1.00;0.30;;;13.70;99.90;;;;;;4949769;29;20444;-86
2022/09/08 12:38:46;;;;;;;0.93;0.40;;;13.80;99.90;;;;;;4953860;29;20471;-85
2022/09/08 12:41:50;;;;;;;2.00;0.55;;;13.40;99.90;;;;;;4916957;29;20617;-86
2022/09/08 12:44:32;;;;;;;1.20;0.40;;;13.00;99.90;;;;;;4915293;29;20899;-86
2022/09/08 12:47:09;;;;;;;1.48;0.40;;;13.40;99.90;;;;;;4914877;29;20744;-87
2022/09/08 12:49:58;;;;;;;1.13;0.40;;;13.50;99.90;;;;;;4946156;29;20814;-84
2022/09/08 12:52:44;;;;;;;1.50;0.40;;;13.70;99.90;;;;;;4934276;29;20499;-86
2022/09/08 12:55:33;;;;;;;2.00;0.50;;;14.10;99.90;;;;;;4928818;29;20390;-87
2022/09/08 12:58:11;;;;;;;1.00;0.50;;;14.20;99.90;;;;;;4931914;29;20398;-87
2022/09/08 13:00:50;;;;;;;0.80;0.30;;;14.30;99.90;;;;;;4935231;29;20397;-86
2022/09/08 13:03:41;;;;;;;1.10;0.30;;;14.40;99.90;;;;;;4945267;29;20452;-85
2022/09/08 13:06:28;;;;;;;1.27;0.30;;;14.60;99.90;;;;;;4953319;28;20398;-85
2022/09/08 13:09:20;;;;;;;2.80;0.40;;;14.70;99.90;;;;;;4935038;29;20394;-86
2022/09/08 13:12:00;;;;;;;1.60;0.50;;;14.70;99.90;;;;;;4933955;29;20405;-87
2022/09/08 13:14:45;;;;;;;1.00;0.30;;;14.70;99.90;;;;;;4934926;29;20397;-87
2022/09/08 13:17:28;;;;;;;1.50;0.40;;;14.90;99.90;;;;;;4933978;29;20401;-87
2022/09/08 13:20:19;;;;;;;2.10;0.40;;;15.00;99.90;;;;;;4933773;29;20880;-87
2022/09/08 13:23:11;;;;;;;1.50;0.40;;;15.10;99.90;;;;;;4933901;29;20526;-85
2022/09/08 13:25:54;;;;;;;1.90;0.30;;;15.30;99.90;;;;;;4933427;29;20410;-86
2022/09/08 13:28:40;;;;;;;0.75;0.30;;;15.40;99.90;;;;;;4949368;29;20474;-85
2022/09/08 13:31:33;;;;;;;1.35;0.30;;;15.30;99.90;;;;;;4933382;29;20987;-87
2022/09/08 13:34:21;;;;;;;1.00;0.25;;;14.80;99.90;;;;;;4934779;29;20496;-86
2022/09/08 13:37:07;;;;;;;6.47;0.47;;;14.40;99.90;;;;;;4949564;29;20417;-86
2022/09/08 13:39:42;;;;;;;2.75;0.40;;;14.10;99.90;;;;;;4951297;29;20408;-87
2022/09/08 13:42:37;;;;;;;1.30;0.30;;;13.90;99.90;;;;;;4949433;28;20402;-88
2022/09/08 13:45:20;;;;;;;2.77;0.30;;;13.70;99.90;;;;;;4949436;29;20410;-87
2022/09/08 13:48:13;;;;;;;1.50;0.38;;;13.60;99.90;;;;;;4949257;28;20398;-86
2022/09/08 13:50:55;;;;;;;3.17;0.50;;;13.70;99.90;;;;;;4948007;29;20402;-87
2022/09/08 13:53:32;;;;;;;0.93;0.30;;;13.90;99.90;;;;;;4949413;29;20848;-88
2022/09/08 13:56:18;;;;;;;2.50;0.40;;;14.20;99.90;;;;;;4949490;28;20976;-88
2022/09/08 13:58:48;;;;;;;2.50;0.30;;;14.40;99.90;;;;;;4948884;28;20420;-86
2022/09/08 14:01:27;;;;;;;0.85;0.30;;;14.60;99.90;;;;;;4949396;28;20406;-88